Terminal Aerodrome Forecast
Issued by NWS Jackson, MS

Home | Current Version | Previous Version | Text Only | Print | Product List | Glossary On
Versions: 1 2 3 4 5 6 7 8 9 10 11 12 13 14
993
FTUS44 KJAN 292323
TAFGLH
TAF
KGLH 292323Z 3000/3024 24015G35KT 5SM -TSRA BR SCT025 BKN040CB
     FM300100 15023G39KT P6SM VCTS SCT025 BKN040CB
     FM300500 15020G33KT P6SM VCTS BKN025CB
     FM300900 16015G27KT P6SM VCTS BKN015CB
     FM301300 17015G29KT 3SM +TSRA BR BKN015CB OVC050
     FM301700 20012G24KT 3SM +TSRA BR BKN025CB OVC050
     FM302100 22013G26KT P6SM VCTS BKN035CB OVC090=

USA.gov is the U.S. government's official web portal to all federal, state and local government web resources and services.